Time;durP1;ratioP1;P1;durP2;ratioP2;P2;SDS_P1;SDS_P2;PMS_P1;PMS_P2;Temp;Humidity;BMP_temperature;BMP_pressure;BME280_temperature;BME280_humidity;BME280_pressure;Samples;Min_cycle;Max_cycle;Signal;HPM_P1;HPM_P2
2021/07/02 00:00:19;;;;;;;9.10;4.50;;;13.00;99.90;;;;;;4926771;29;20098;-81
2021/07/02 00:02:45;;;;;;;6.30;4.40;;;13.00;99.90;;;;;;4938028;29;20036;-81
2021/07/02 00:05:12;;;;;;;7.20;4.25;;;13.00;99.90;;;;;;4951085;29;20045;-82
2021/07/02 00:07:38;;;;;;;8.27;4.38;;;13.00;99.90;;;;;;4936034;29;20024;-82
2021/07/02 00:10:06;;;;;;;9.00;4.60;;;13.00;99.90;;;;;;4935703;29;20028;-82
2021/07/02 00:12:32;;;;;;;6.50;3.92;;;13.00;99.90;;;;;;4951931;29;20035;-82
2021/07/02 00:14:57;;;;;;;6.72;4.32;;;13.00;99.90;;;;;;4939237;29;20083;-81
2021/07/02 00:17:23;;;;;;;7.90;4.22;;;13.00;99.90;;;;;;4937021;28;20080;-82
2021/07/02 00:19:49;;;;;;;7.25;4.05;;;13.00;99.90;;;;;;4955479;28;20106;-81
2021/07/02 00:22:15;;;;;;;6.88;4.30;;;13.00;99.90;;;;;;4948250;28;20105;-81
2021/07/02 00:24:40;;;;;;;5.88;3.95;;;13.00;99.90;;;;;;4930620;29;20122;-82
2021/07/02 00:27:06;;;;;;;10.48;5.00;;;13.00;99.90;;;;;;4940521;29;20375;-82
2021/07/02 00:29:32;;;;;;;6.60;4.28;;;13.00;99.90;;;;;;4918897;29;20475;-82
2021/07/02 00:31:58;;;;;;;8.02;4.50;;;13.00;99.90;;;;;;4926904;29;20699;-82
2021/07/02 00:34:24;;;;;;;8.85;4.68;;;13.00;99.90;;;;;;4922837;29;20057;-81
2021/07/02 00:36:50;;;;;;;9.13;4.43;;;13.00;99.90;;;;;;4942793;29;20118;-82
2021/07/02 00:39:16;;;;;;;7.50;4.28;;;13.00;99.90;;;;;;4919741;29;20550;-81
2021/07/02 00:41:42;;;;;;;7.70;4.15;;;13.00;99.90;;;;;;4932663;29;20027;-81
2021/07/02 00:44:08;;;;;;;8.25;4.70;;;13.00;99.90;;;;;;4930129;29;20039;-82
2021/07/02 00:46:34;;;;;;;7.43;4.32;;;13.00;99.90;;;;;;4937481;29;20035;-82
2021/07/02 00:49:00;;;;;;;9.18;5.00;;;13.00;99.90;;;;;;4936948;29;20027;-82
2021/07/02 00:51:30;;;;;;;7.32;4.93;;;13.00;99.90;;;;;;4955941;28;20074;-82
2021/07/02 00:53:58;;;;;;;7.45;4.25;;;13.00;99.90;;;;;;4946822;29;20036;-81
2021/07/02 00:56:25;;;;;;;6.60;4.22;;;13.00;99.90;;;;;;4967992;28;20045;-82
2021/07/02 00:58:51;;;;;;;7.90;4.20;;;13.00;99.90;;;;;;4942014;29;20031;-82
2021/07/02 01:01:21;;;;;;;7.07;4.75;;;13.00;99.90;;;;;;4934888;29;20042;-82
2021/07/02 01:03:52;;;;;;;7.20;4.20;;;13.00;99.90;;;;;;4929273;29;20501;-81
2021/07/02 01:06:21;;;;;;;9.70;5.13;;;13.00;99.90;;;;;;4951153;29;20054;-81
2021/07/02 01:08:47;;;;;;;6.90;4.28;;;13.00;99.90;;;;;;4932468;29;20032;-82
2021/07/02 01:11:14;;;;;;;10.73;4.75;;;13.00;99.90;;;;;;4946589;29;20015;-81
2021/07/02 01:13:40;;;;;;;9.48;4.72;;;13.00;99.90;;;;;;4921522;29;20031;-81
2021/07/02 01:16:06;;;;;;;6.47;3.92;;;13.00;99.90;;;;;;4947387;29;20036;-82
2021/07/02 01:18:32;;;;;;;9.52;4.00;;;13.00;99.90;;;;;;4954458;28;20043;-82
2021/07/02 01:20:58;;;;;;;7.65;4.45;;;13.00;99.90;;;;;;4935166;29;20035;-81
2021/07/02 01:23:27;;;;;;;8.60;4.15;;;13.00;99.90;;;;;;4928289;29;20039;-80
2021/07/02 01:25:54;;;;;;;7.88;4.20;;;13.00;99.90;;;;;;4919742;29;20143;-81
2021/07/02 01:28:20;;;;;;;6.63;3.72;;;13.00;99.90;;;;;;4932035;29;20521;-81
2021/07/02 01:30:46;;;;;;;6.85;4.15;;;13.00;99.90;;;;;;4921043;29;20122;-81
2021/07/02 01:33:13;;;;;;;6.65;4.63;;;13.00;99.90;;;;;;4918289;29;20056;-81
2021/07/02 01:35:40;;;;;;;7.28;4.82;;;12.90;99.90;;;;;;4929626;29;20108;-81
2021/07/02 01:38:08;;;;;;;6.90;4.50;;;12.90;99.90;;;;;;4945109;29;20516;-82
2021/07/02 01:40:34;;;;;;;6.65;3.95;;;12.90;99.90;;;;;;4936145;29;20402;-82
2021/07/02 01:43:02;;;;;;;7.63;4.85;;;12.90;99.90;;;;;;4930936;29;20748;-81
2021/07/02 01:45:32;;;;;;;7.55;4.38;;;12.90;99.90;;;;;;4967486;28;20035;-81
2021/07/02 01:47:58;;;;;;;8.60;4.70;;;12.90;99.90;;;;;;4947583;29;20035;-81
2021/07/02 01:50:27;;;;;;;10.35;4.55;;;12.90;99.90;;;;;;4942534;29;20059;-81
2021/07/02 01:52:54;;;;;;;6.53;4.22;;;12.90;99.90;;;;;;4933364;29;20055;-83
2021/07/02 01:55:23;;;;;;;5.55;3.92;;;12.90;99.90;;;;;;4934415;29;20042;-82
2021/07/02 01:57:51;;;;;;;5.57;4.03;;;12.90;99.90;;;;;;4932028;29;20036;-82
2021/07/02 02:00:22;;;;;;;8.88;4.60;;;12.90;99.90;;;;;;4953262;29;20031;-82
2021/07/02 02:02:59;;;;;;;7.32;3.83;;;12.90;99.90;;;;;;4952356;29;20047;-81
2021/07/02 02:05:26;;;;;;;7.80;4.40;;;12.90;99.90;;;;;;4944414;29;20039;-81
2021/07/02 02:07:52;;;;;;;6.78;3.97;;;12.80;99.90;;;;;;4927320;29;20055;-81
2021/07/02 02:10:18;;;;;;;7.00;4.40;;;12.90;99.90;;;;;;4934062;29;20086;-81
2021/07/02 02:12:44;;;;;;;7.32;4.00;;;12.80;99.90;;;;;;4938972;29;20028;-81
2021/07/02 02:15:11;;;;;;;7.82;4.50;;;12.80;99.90;;;;;;4925497;29;20055;-82
2021/07/02 02:17:40;;;;;;;8.38;4.10;;;12.80;99.90;;;;;;4933657;29;20070;-81
2021/07/02 02:20:09;;;;;;;8.40;4.57;;;12.80;99.90;;;;;;4950184;29;20039;-82
2021/07/02 02:22:35;;;;;;;8.32;4.70;;;12.80;99.90;;;;;;4945258;28;20176;-81
2021/07/02 02:25:03;;;;;;;7.22;4.28;;;12.80;99.90;;;;;;4947012;28;20536;-82
2021/07/02 02:27:30;;;;;;;8.55;5.30;;;12.80;99.90;;;;;;4953727;29;20126;-81
2021/07/02 02:29:57;;;;;;;9.32;5.25;;;12.80;99.90;;;;;;4947819;29;20035;-81
2021/07/02 02:32:23;;;;;;;8.13;4.95;;;12.70;99.90;;;;;;4915469;29;20078;-82
2021/07/02 02:34:49;;;;;;;8.88;4.75;;;12.80;99.90;;;;;;4941397;28;20050;-83
2021/07/02 02:37:17;;;;;;;8.23;4.60;;;12.80;99.90;;;;;;4935585;29;20395;-82
2021/07/02 02:39:43;;;;;;;12.23;5.40;;;12.80;99.90;;;;;;4934711;29;20024;-82
2021/07/02 02:42:09;;;;;;;9.05;4.78;;;12.70;99.90;;;;;;4914431;29;20046;-81
2021/07/02 02:44:35;;;;;;;8.23;5.28;;;12.70;99.90;;;;;;4919898;29;20123;-82
2021/07/02 02:47:01;;;;;;;10.25;5.38;;;12.80;99.90;;;;;;4936730;29;20031;-82
2021/07/02 02:49:27;;;;;;;7.78;4.75;;;12.70;99.90;;;;;;4951243;28;20036;-81
2021/07/02 02:51:53;;;;;;;7.63;4.80;;;12.70;99.90;;;;;;4911901;29;20087;-81
2021/07/02 02:54:19;;;;;;;10.60;5.50;;;12.70;99.90;;;;;;4915634;29;20042;-82
2021/07/02 02:57:04;;;;;;;7.50;4.30;;;12.80;99.90;;;;;;4951081;28;20030;-82
2021/07/02 02:59:30;;;;;;;8.00;4.65;;;12.70;99.90;;;;;;4949011;29;20094;-82
2021/07/02 03:01:57;;;;;;;10.50;5.18;;;12.70;99.90;;;;;;4941253;28;20546;-81
2021/07/02 03:04:23;;;;;;;7.85;4.70;;;12.70;99.90;;;;;;4934805;29;20058;-82
2021/07/02 03:06:50;;;;;;;10.25;5.28;;;12.70;99.90;;;;;;4951477;29;20073;-82
2021/07/02 03:09:16;;;;;;;7.25;4.95;;;12.70;99.90;;;;;;4949103;29;20020;-81
2021/07/02 03:11:45;;;;;;;7.60;4.68;;;12.70;99.90;;;;;;4929757;29;20027;-82
2021/07/02 03:14:12;;;;;;;9.40;5.00;;;12.80;99.90;;;;;;4952463;29;20126;-82
2021/07/02 03:16:38;;;;;;;8.93;4.78;;;12.80;99.90;;;;;;4925670;29;20042;-83
2021/07/02 03:19:04;;;;;;;8.23;4.97;;;12.80;99.90;;;;;;4953388;28;20036;-82
2021/07/02 03:21:31;;;;;;;10.90;4.93;;;12.80;99.90;;;;;;4951478;29;20031;-81
2021/07/02 03:23:57;;;;;;;10.13;4.88;;;12.80;99.90;;;;;;4946247;29;20090;-82
2021/07/02 03:26:23;;;;;;;8.70;4.95;;;12.80;99.90;;;;;;4949799;28;20450;-82
2021/07/02 03:28:51;;;;;;;8.48;4.65;;;12.80;99.90;;;;;;4947802;29;20034;-82
2021/07/02 03:31:17;;;;;;;8.20;4.70;;;12.80;99.90;;;;;;4918402;29;20031;-81
2021/07/02 03:33:44;;;;;;;7.68;4.60;;;12.80;99.90;;;;;;4912450;29;20033;-82
2021/07/02 03:36:10;;;;;;;6.68;4.35;;;12.80;99.90;;;;;;4928699;29;20036;-82
2021/07/02 03:38:36;;;;;;;8.30;4.63;;;12.80;99.90;;;;;;4934394;29;20042;-81
2021/07/02 03:41:02;;;;;;;7.90;4.35;;;12.80;99.90;;;;;;4929107;29;20036;-81
2021/07/02 03:43:30;;;;;;;7.97;4.43;;;12.80;99.90;;;;;;4949892;28;20047;-81
2021/07/02 03:45:57;;;;;;;6.18;4.60;;;12.80;99.90;;;;;;4935048;29;20032;-83
2021/07/02 03:48:23;;;;;;;6.22;4.45;;;12.80;99.90;;;;;;4950743;28;20032;-82
2021/07/02 03:50:51;;;;;;;6.65;4.07;;;12.80;99.90;;;;;;4923023;29;20039;-82
2021/07/02 03:53:18;;;;;;;6.68;4.43;;;12.80;99.90;;;;;;4952418;28;20031;-81
2021/07/02 03:55:44;;;;;;;7.53;4.07;;;12.80;99.90;;;;;;4955764;29;20031;-81
2021/07/02 03:58:10;;;;;;;6.82;3.97;;;12.80;99.90;;;;;;4950707;29;20032;-82
2021/07/02 04:00:35;;;;;;;5.88;3.55;;;12.80;99.90;;;;;;4923188;29;20075;-83
2021/07/02 04:03:01;;;;;;;7.93;4.47;;;12.80;99.90;;;;;;4971091;28;20035;-82
2021/07/02 04:05:27;;;;;;;5.57;3.67;;;12.80;99.90;;;;;;4931324;29;20039;-82
2021/07/02 04:07:53;;;;;;;7.15;4.25;;;12.80;99.90;;;;;;4934448;29;20039;-81
2021/07/02 04:10:19;;;;;;;6.18;3.78;;;12.80;99.90;;;;;;4962495;28;20031;-82
2021/07/02 04:12:44;;;;;;;8.68;4.15;;;12.80;99.90;;;;;;4952248;29;20122;-82
2021/07/02 04:15:10;;;;;;;5.80;3.85;;;12.80;99.90;;;;;;4952750;28;20079;-82
2021/07/02 04:17:39;;;;;;;7.75;3.92;;;12.80;99.90;;;;;;4937338;29;20402;-82
2021/07/02 04:20:10;;;;;;;6.07;4.28;;;12.90;99.90;;;;;;4915383;29;20031;-81
2021/07/02 04:22:37;;;;;;;6.72;4.32;;;12.90;99.90;;;;;;4934526;29;20058;-82
2021/07/02 04:25:06;;;;;;;7.43;4.03;;;12.90;99.90;;;;;;4957757;28;20063;-81
2021/07/02 04:27:31;;;;;;;9.05;4.22;;;13.00;99.90;;;;;;4936560;29;20438;-82
2021/07/02 04:29:57;;;;;;;6.63;3.67;;;13.00;99.90;;;;;;4951183;28;20094;-82
2021/07/02 04:32:23;;;;;;;6.07;3.72;;;13.00;99.90;;;;;;4937969;28;20045;-81
2021/07/02 04:34:49;;;;;;;6.93;4.15;;;13.00;99.90;;;;;;4954613;28;20134;-82
2021/07/02 04:37:14;;;;;;;7.47;3.63;;;13.00;99.90;;;;;;4937776;29;20059;-82
2021/07/02 04:39:40;;;;;;;5.40;3.42;;;13.00;99.90;;;;;;4917568;29;20585;-82
2021/07/02 04:42:07;;;;;;;6.95;3.75;;;13.00;99.90;;;;;;4922632;29;20561;-83
2021/07/02 04:44:35;;;;;;;6.30;3.15;;;13.00;99.90;;;;;;4967590;28;20394;-84
2021/07/02 04:47:00;;;;;;;5.43;3.60;;;12.90;99.90;;;;;;4943312;29;20039;-83
2021/07/02 04:49:26;;;;;;;5.22;3.60;;;13.00;99.90;;;;;;4930189;29;20031;-83
2021/07/02 04:51:52;;;;;;;4.63;3.40;;;13.10;99.90;;;;;;4951110;29;20113;-83
2021/07/02 04:54:18;;;;;;;5.22;3.40;;;13.00;99.90;;;;;;4934761;29;20090;-84
2021/07/02 04:56:47;;;;;;;8.45;3.63;;;13.00;99.90;;;;;;4953985;28;20797;-83
2021/07/02 04:59:17;;;;;;;7.68;4.28;;;13.00;99.90;;;;;;4930332;29;20035;-82
2021/07/02 05:01:43;;;;;;;4.95;3.75;;;13.00;99.90;;;;;;4951990;28;20032;-83
2021/07/02 05:04:09;;;;;;;7.80;3.92;;;13.00;99.90;;;;;;4944641;29;20054;-83
2021/07/02 05:06:36;;;;;;;6.20;3.85;;;13.00;99.90;;;;;;4952893;28;20474;-83
2021/07/02 05:09:04;;;;;;;8.63;4.55;;;13.00;99.90;;;;;;4935919;28;20043;-83
2021/07/02 05:11:30;;;;;;;5.05;3.70;;;12.90;99.90;;;;;;4952049;28;20058;-82
2021/07/02 05:13:56;;;;;;;5.90;4.15;;;13.00;99.90;;;;;;4934842;29;20069;-82
2021/07/02 05:16:21;;;;;;;6.57;3.97;;;13.00;99.90;;;;;;4920320;29;20067;-83
2021/07/02 05:18:47;;;;;;;4.55;3.08;;;13.00;99.90;;;;;;4947929;29;20035;-82
2021/07/02 05:21:13;;;;;;;6.70;3.75;;;13.00;99.90;;;;;;4930188;29;20391;-82
2021/07/02 05:23:38;;;;;;;5.88;3.85;;;13.00;99.90;;;;;;4906618;29;20039;-83
2021/07/02 05:26:04;;;;;;;3.88;3.10;;;13.00;99.90;;;;;;4936067;29;20047;-82
2021/07/02 05:28:30;;;;;;;5.18;3.53;;;12.90;99.90;;;;;;4969044;28;20038;-83
2021/07/02 05:30:56;;;;;;;4.75;3.25;;;12.90;99.90;;;;;;4928281;29;20032;-83
2021/07/02 05:33:21;;;;;;;4.18;3.13;;;12.90;99.90;;;;;;4917577;29;20487;-83
2021/07/02 05:35:47;;;;;;;3.60;2.97;;;13.00;99.90;;;;;;4931103;29;20038;-83
2021/07/02 05:38:14;;;;;;;5.30;3.80;;;13.00;99.90;;;;;;4937482;29;20043;-83
2021/07/02 05:40:40;;;;;;;6.65;3.20;;;13.00;99.90;;;;;;4960060;28;20035;-83
2021/07/02 05:43:05;;;;;;;5.82;3.45;;;13.00;99.90;;;;;;4928716;29;20032;-83
2021/07/02 05:45:31;;;;;;;4.47;3.28;;;13.00;99.90;;;;;;4915311;29;20031;-84
2021/07/02 05:48:00;;;;;;;5.68;3.83;;;13.00;99.90;;;;;;4945182;23;20722;-82
2021/07/02 05:50:27;;;;;;;5.18;3.83;;;13.00;99.90;;;;;;4924552;29;20599;-83
2021/07/02 05:52:56;;;;;;;5.80;4.00;;;13.00;99.90;;;;;;4950982;29;20043;-83
2021/07/02 05:55:23;;;;;;;5.32;3.53;;;13.00;99.90;;;;;;4950555;29;20090;-83
2021/07/02 05:57:49;;;;;;;6.00;3.83;;;13.00;99.90;;;;;;4966108;28;20038;-83
2021/07/02 06:00:15;;;;;;;4.65;3.33;;;13.00;99.90;;;;;;4915062;29;20051;-83
2021/07/02 06:02:41;;;;;;;5.65;3.85;;;13.00;99.90;;;;;;4936970;29;20040;-83
2021/07/02 06:05:07;;;;;;;4.32;3.13;;;13.00;99.90;;;;;;4965400;28;20094;-82
2021/07/02 06:07:52;;;;;;;5.95;3.80;;;13.00;99.90;;;;;;4949297;28;20676;-82
2021/07/02 06:10:20;;;;;;;4.90;3.40;;;12.90;99.90;;;;;;4948917;29;20032;-84
2021/07/02 06:12:47;;;;;;;4.57;2.95;;;13.00;99.90;;;;;;4932968;29;20036;-84
2021/07/02 06:15:14;;;;;;;4.18;2.90;;;13.00;99.90;;;;;;4916973;29;20053;-83
2021/07/02 06:17:42;;;;;;;5.40;3.55;;;12.90;99.90;;;;;;4902636;29;20121;-83
2021/07/02 06:20:09;;;;;;;7.13;3.63;;;13.00;99.90;;;;;;4961100;28;20039;-85
2021/07/02 06:22:35;;;;;;;4.38;3.15;;;13.00;99.90;;;;;;4949274;28;20032;-84
2021/07/02 06:25:03;;;;;;;4.68;3.08;;;13.00;99.90;;;;;;4916022;29;20046;-83
2021/07/02 06:27:28;;;;;;;4.57;3.10;;;13.00;99.90;;;;;;4913509;29;20035;-83
2021/07/02 06:29:54;;;;;;;3.75;2.88;;;13.00;99.90;;;;;;4928992;29;20031;-83
2021/07/02 06:32:20;;;;;;;4.10;2.92;;;13.00;99.90;;;;;;4934272;29;20498;-81
2021/07/02 06:34:46;;;;;;;5.00;3.38;;;13.00;99.90;;;;;;4941158;29;20031;-84
2021/07/02 06:37:11;;;;;;;3.92;3.28;;;13.10;99.90;;;;;;4933411;29;20039;-82
2021/07/02 06:39:37;;;;;;;3.83;2.90;;;13.10;99.90;;;;;;4930164;29;20032;-82
2021/07/02 06:42:04;;;;;;;3.97;2.78;;;13.10;99.90;;;;;;4935690;29;20429;-83
2021/07/02 06:44:29;;;;;;;5.97;3.35;;;13.10;99.90;;;;;;4931103;28;20043;-84
2021/07/02 06:46:55;;;;;;;3.55;2.90;;;13.20;99.90;;;;;;4932465;29;20032;-83
2021/07/02 06:49:21;;;;;;;6.50;3.03;;;13.10;99.90;;;;;;4920939;29;20624;-84
2021/07/02 06:51:47;;;;;;;4.85;2.50;;;13.20;99.90;;;;;;4928602;29;20495;-84
2021/07/02 06:54:12;;;;;;;4.05;2.90;;;13.30;99.90;;;;;;4917262;29;20039;-83
2021/07/02 06:57:00;;;;;;;4.07;2.80;;;13.30;99.90;;;;;;4934660;29;20135;-83
2021/07/02 06:59:25;;;;;;;3.50;2.58;;;13.30;99.90;;;;;;4947831;29;20459;-82
2021/07/02 07:01:51;;;;;;;3.72;2.47;;;13.30;99.90;;;;;;4936200;29;20035;-84
2021/07/02 07:04:16;;;;;;;3.33;2.58;;;13.40;99.90;;;;;;4936578;29;20071;-84
2021/07/02 07:06:42;;;;;;;4.00;2.70;;;13.40;99.90;;;;;;4932895;29;20040;-83
2021/07/02 07:09:08;;;;;;;3.40;2.55;;;13.50;99.90;;;;;;4930323;29;20030;-83
2021/07/02 07:11:33;;;;;;;2.63;2.30;;;13.60;99.90;;;;;;4920565;29;20086;-83
2021/07/02 07:13:59;;;;;;;3.28;2.38;;;13.60;99.90;;;;;;4935660;29;20035;-83
2021/07/02 07:16:25;;;;;;;2.38;1.88;;;13.60;99.90;;;;;;4926414;29;20450;-82
2021/07/02 07:18:50;;;;;;;2.17;1.80;;;13.70;99.90;;;;;;4915824;29;20039;-83
2021/07/02 07:21:16;;;;;;;2.05;1.70;;;13.80;99.90;;;;;;4934048;29;20421;-84
2021/07/02 07:23:43;;;;;;;1.83;1.35;;;13.80;99.90;;;;;;4943225;29;20039;-83
2021/07/02 07:26:08;;;;;;;1.70;1.60;;;13.90;99.90;;;;;;4934170;29;20709;-83
2021/07/02 07:28:34;;;;;;;2.85;1.65;;;13.90;99.90;;;;;;4934549;29;20024;-84
2021/07/02 07:31:00;;;;;;;2.10;1.58;;;13.90;99.90;;;;;;4925573;29;20410;-83
2021/07/02 07:33:26;;;;;;;1.67;1.58;;;14.00;99.90;;;;;;4912006;29;20045;-84
2021/07/02 07:35:52;;;;;;;3.53;1.90;;;14.00;99.90;;;;;;4944891;29;20039;-83
2021/07/02 07:38:18;;;;;;;5.00;1.83;;;14.00;99.90;;;;;;4945115;28;20036;-83
2021/07/02 07:40:44;;;;;;;2.38;1.48;;;14.10;99.90;;;;;;4927069;29;20075;-84
2021/07/02 07:43:10;;;;;;;1.88;1.42;;;14.10;99.90;;;;;;4950818;29;20063;-83
2021/07/02 07:45:36;;;;;;;1.33;1.10;;;14.10;99.90;;;;;;4933520;29;20039;-83
2021/07/02 07:48:02;;;;;;;1.35;1.00;;;14.20;99.90;;;;;;4915272;29;20043;-82
2021/07/02 07:50:30;;;;;;;2.13;1.13;;;14.30;99.90;;;;;;4930502;29;20035;-83
2021/07/02 07:52:59;;;;;;;1.08;0.98;;;14.30;99.90;;;;;;4917084;29;20028;-83
2021/07/02 07:55:29;;;;;;;0.75;0.70;;;14.30;99.90;;;;;;4930064;29;20440;-83
2021/07/02 07:57:56;;;;;;;0.63;0.63;;;14.30;99.90;;;;;;4946419;28;20031;-84
2021/07/02 08:00:22;;;;;;;0.60;0.60;;;14.30;99.90;;;;;;4934354;29;20031;-84
2021/07/02 08:02:49;;;;;;;0.93;0.73;;;14.30;99.90;;;;;;4926311;29;20714;-84
2021/07/02 08:05:15;;;;;;;0.70;0.70;;;14.30;99.90;;;;;;4934922;29;20031;-84
2021/07/02 08:07:42;;;;;;;0.70;0.70;;;14.30;99.90;;;;;;4934042;29;20118;-84
2021/07/02 08:10:11;;;;;;;0.50;0.50;;;14.30;99.90;;;;;;4935690;29;20075;-83
2021/07/02 08:12:38;;;;;;;1.30;0.60;;;14.30;99.90;;;;;;4947303;28;20078;-83
2021/07/02 08:15:05;;;;;;;0.85;0.70;;;14.30;99.90;;;;;;4931858;29;20031;-84
2021/07/02 08:17:31;;;;;;;0.55;0.55;;;14.40;99.90;;;;;;4933075;29;20067;-84
2021/07/02 08:19:57;;;;;;;0.40;0.40;;;14.40;99.90;;;;;;4915902;29;20494;-84
2021/07/02 08:22:27;;;;;;;0.70;0.55;;;14.40;99.90;;;;;;4912460;29;20128;-83
2021/07/02 08:24:53;;;;;;;1.17;0.63;;;14.40;99.90;;;;;;4943313;28;20043;-83
2021/07/02 08:27:19;;;;;;;0.85;0.52;;;14.50;99.90;;;;;;4933824;29;20039;-82
2021/07/02 08:29:45;;;;;;;0.88;0.60;;;14.50;99.90;;;;;;4930139;29;20402;-82
2021/07/02 08:32:11;;;;;;;0.63;0.43;;;14.60;99.90;;;;;;4946740;28;20040;-82
2021/07/02 08:34:37;;;;;;;0.75;0.60;;;14.60;99.90;;;;;;4952513;29;20027;-82
2021/07/02 08:37:03;;;;;;;1.85;0.55;;;14.60;99.90;;;;;;4940559;29;20709;-82
2021/07/02 08:39:29;;;;;;;0.75;0.57;;;14.70;99.90;;;;;;4947782;29;20070;-84
2021/07/02 08:41:55;;;;;;;1.25;0.52;;;14.70;99.90;;;;;;4937650;29;20051;-82
2021/07/02 08:44:20;;;;;;;0.40;0.30;;;14.70;99.90;;;;;;4938116;29;20502;-83
2021/07/02 08:46:48;;;;;;;0.38;0.30;;;14.70;99.90;;;;;;4955564;28;20027;-83
2021/07/02 08:49:15;;;;;;;0.40;0.40;;;14.70;99.90;;;;;;4946580;28;20043;-83
2021/07/02 08:51:41;;;;;;;0.38;0.30;;;14.70;99.90;;;;;;4925429;29;20035;-84
2021/07/02 08:54:08;;;;;;;0.40;0.30;;;14.70;99.90;;;;;;4939835;29;20379;-83
2021/07/02 08:56:33;;;;;;;1.17;0.52;;;14.70;99.90;;;;;;4946922;29;20043;-84
2021/07/02 08:58:59;;;;;;;0.50;0.38;;;14.70;99.90;;;;;;4951028;29;20027;-82
2021/07/02 09:01:43;;;;;;;0.38;0.30;;;14.70;99.90;;;;;;4922931;29;20039;-83
2021/07/02 09:04:23;;;;;;;0.43;0.40;;;14.70;99.90;;;;;;4908506;29;20031;-82
2021/07/02 09:07:21;;;;;;;0.30;0.30;;;14.70;99.90;;;;;;4946536;28;20379;-82
2021/07/02 09:09:56;;;;;;;0.30;0.30;;;14.80;99.90;;;;;;4951589;29;20050;-82
2021/07/02 09:12:27;;;;;;;0.38;0.35;;;14.80;99.90;;;;;;4948412;28;20031;-82
2021/07/02 09:15:07;;;;;;;1.20;0.40;;;14.80;99.90;;;;;;4948271;29;20039;-81
2021/07/02 09:17:45;;;;;;;0.52;0.38;;;14.70;99.90;;;;;;4932808;29;20066;-82
2021/07/02 09:20:18;;;;;;;0.40;0.40;;;14.70;99.90;;;;;;4952418;29;20422;-81
2021/07/02 09:22:49;;;;;;;0.40;0.40;;;14.70;99.90;;;;;;4953739;29;20251;-81
2021/07/02 09:25:54;;;;;;;0.38;0.38;;;14.60;99.90;;;;;;4940227;29;20043;-83
2021/07/02 09:28:24;;;;;;;0.47;0.40;;;14.60;99.90;;;;;;4909921;29;20050;-81
2021/07/02 09:30:54;;;;;;;0.38;0.30;;;14.60;99.90;;;;;;4908676;29;20491;-81
2021/07/02 09:33:23;;;;;;;0.57;0.57;;;14.50;99.90;;;;;;4938877;28;20770;-83
2021/07/02 09:35:52;;;;;;;0.40;0.40;;;14.50;99.90;;;;;;4931215;29;20031;-82
2021/07/02 09:38:38;;;;;;;3.25;0.80;;;14.50;99.90;;;;;;4942694;28;20063;-82
2021/07/02 09:41:06;;;;;;;0.70;0.50;;;14.50;99.90;;;;;;4929309;29;20035;-81
2021/07/02 09:43:32;;;;;;;0.50;0.40;;;14.60;99.90;;;;;;4945414;28;20039;-83
2021/07/02 09:46:02;;;;;;;0.80;0.40;;;14.60;99.90;;;;;;4922865;29;20155;-82
2021/07/02 09:48:29;;;;;;;0.52;0.45;;;14.60;99.90;;;;;;4945050;28;20490;-82
2021/07/02 09:51:03;;;;;;;0.47;0.40;;;14.80;99.90;;;;;;4944033;29;20027;-83
2021/07/02 09:53:34;;;;;;;0.38;0.30;;;14.80;99.90;;;;;;4932352;29;20075;-82
2021/07/02 09:56:03;;;;;;;0.45;0.40;;;14.90;99.90;;;;;;4962404;28;20031;-83
2021/07/02 09:58:36;;;;;;;0.30;0.30;;;15.00;99.90;;;;;;4942594;28;20035;-82
2021/07/02 10:01:03;;;;;;;0.80;0.40;;;15.00;99.90;;;;;;4938320;28;20044;-81
2021/07/02 10:03:31;;;;;;;0.47;0.40;;;14.90;99.90;;;;;;4942796;29;20035;-82
2021/07/02 10:05:57;;;;;;;0.22;0.22;;;14.80;99.90;;;;;;4948854;28;20035;-82
2021/07/02 10:08:26;;;;;;;1.13;0.30;;;14.90;99.90;;;;;;4913776;29;20042;-83
2021/07/02 10:10:54;;;;;;;0.75;0.40;;;14.80;99.90;;;;;;4932031;29;20035;-82
2021/07/02 10:13:22;;;;;;;0.52;0.40;;;14.80;99.90;;;;;;4941222;28;20913;-82
2021/07/02 10:15:50;;;;;;;3.38;0.32;;;14.80;99.90;;;;;;4939552;29;20094;-83
2021/07/02 10:18:17;;;;;;;0.40;0.40;;;14.80;99.90;;;;;;4928078;29;20664;-82
2021/07/02 10:20:44;;;;;;;0.30;0.30;;;14.80;99.90;;;;;;4948581;29;20035;-84
2021/07/02 10:23:11;;;;;;;0.40;0.40;;;14.70;99.90;;;;;;4947784;28;20039;-82
2021/07/02 10:25:43;;;;;;;0.40;0.40;;;14.80;99.90;;;;;;4945522;29;20028;-83
2021/07/02 10:28:12;;;;;;;0.40;0.40;;;14.80;99.90;;;;;;4931700;29;20034;-83
2021/07/02 10:30:41;;;;;;;0.75;0.60;;;14.90;99.90;;;;;;4940467;28;20035;-84
2021/07/02 10:33:08;;;;;;;0.95;0.40;;;15.00;99.90;;;;;;4945030;28;20478;-84
2021/07/02 10:35:35;;;;;;;0.40;0.40;;;15.10;99.90;;;;;;4952015;28;20087;-85
2021/07/02 10:38:04;;;;;;;0.60;0.60;;;15.10;99.90;;;;;;4935461;29;20035;-83
2021/07/02 10:40:41;;;;;;;0.70;0.65;;;15.20;99.90;;;;;;4918031;29;20027;-83
2021/07/02 10:43:18;;;;;;;0.68;0.60;;;15.30;99.90;;;;;;4929581;29;20551;-85
2021/07/02 10:46:08;;;;;;;0.68;0.60;;;15.40;99.90;;;;;;4945470;29;20038;-83
2021/07/02 10:48:49;;;;;;;0.60;0.60;;;15.40;99.90;;;;;;4938847;29;20028;-83
2021/07/02 10:54:18;;;;;;;0.47;0.45;;;15.40;99.90;;;;;;4959403;28;20037;-82
2021/07/02 10:56:57;;;;;;;0.60;0.47;;;15.40;99.90;;;;;;4949216;28;20023;-82
2021/07/02 10:59:38;;;;;;;0.98;0.70;;;15.40;99.90;;;;;;4942360;29;20054;-82
2021/07/02 11:02:06;;;;;;;0.80;0.80;;;15.30;99.90;;;;;;4943287;29;20633;-83
2021/07/02 11:04:33;;;;;;;1.67;0.88;;;15.20;99.90;;;;;;4942757;29;20031;-83
2021/07/02 11:06:59;;;;;;;1.67;1.35;;;15.10;99.90;;;;;;4956013;28;20027;-83
2021/07/02 11:09:44;;;;;;;1.00;0.90;;;15.10;99.90;;;;;;4911990;29;20039;-82
2021/07/02 11:12:11;;;;;;;1.85;1.27;;;15.10;99.90;;;;;;4944440;29;20502;-83
2021/07/02 11:14:55;;;;;;;1.63;1.52;;;15.00;99.90;;;;;;4925286;29;20156;-83
2021/07/02 11:17:22;;;;;;;2.92;1.50;;;15.00;99.90;;;;;;4961000;28;20805;-82
2021/07/02 11:20:09;;;;;;;1.67;1.50;;;15.10;99.90;;;;;;4942279;29;20032;-82
2021/07/02 11:22:53;;;;;;;1.83;1.58;;;15.20;99.90;;;;;;4943900;29;20019;-82
2021/07/02 11:28:09;;;;;;;2.53;1.90;;;15.30;99.90;;;;;;4943127;28;20069;-82
2021/07/02 11:30:38;;;;;;;3.03;2.38;;;15.40;99.90;;;;;;4942507;29;20031;-82
2021/07/02 11:33:10;;;;;;;2.20;2.00;;;15.40;99.90;;;;;;4942998;28;20055;-82
2021/07/02 11:35:40;;;;;;;2.50;2.30;;;15.50;99.90;;;;;;4961235;28;20086;-82
2021/07/02 11:38:15;;;;;;;2.10;1.90;;;15.60;99.90;;;;;;4929463;29;20047;-83
2021/07/02 11:41:04;;;;;;;4.97;2.53;;;15.50;99.90;;;;;;4909587;29;20031;-82
2021/07/02 11:43:41;;;;;;;3.58;2.30;;;15.60;99.90;;;;;;4942202;29;20062;-82
2021/07/02 11:46:15;;;;;;;2.67;2.10;;;15.60;99.90;;;;;;4941766;28;20119;-81
2021/07/02 11:48:48;;;;;;;2.03;1.80;;;15.60;99.90;;;;;;4942189;29;20031;-82
2021/07/02 11:51:20;;;;;;;2.53;2.03;;;15.60;99.90;;;;;;4939637;28;20059;-81
2021/07/02 11:54:00;;;;;;;4.22;2.20;;;15.50;99.90;;;;;;4946766;29;20043;-81
2021/07/02 11:56:28;;;;;;;2.63;2.40;;;15.50;99.90;;;;;;4941871;29;20023;-82
2021/07/02 11:58:59;;;;;;;4.50;2.90;;;15.50;99.90;;;;;;4943167;28;20039;-82
2021/07/02 12:01:40;;;;;;;3.97;2.67;;;15.60;99.90;;;;;;4946905;29;20027;-82
2021/07/02 12:04:09;;;;;;;4.38;3.03;;;15.60;99.90;;;;;;4947543;29;20046;-81
2021/07/02 12:06:42;;;;;;;3.42;2.38;;;15.70;99.90;;;;;;4939069;28;20087;-81
2021/07/02 12:09:07;;;;;;;3.90;3.03;;;15.80;99.90;;;;;;4941476;28;20554;-82
2021/07/02 12:11:39;;;;;;;4.78;3.08;;;15.90;99.90;;;;;;4947392;29;20110;-81
2021/07/02 12:14:10;;;;;;;4.38;2.75;;;16.00;99.90;;;;;;4948374;29;20086;-81
2021/07/02 12:16:38;;;;;;;3.60;2.88;;;16.20;99.90;;;;;;4933489;28;20038;-81
2021/07/02 12:19:12;;;;;;;4.47;3.60;;;16.40;99.90;;;;;;4930228;29;20039;-82
2021/07/02 12:21:38;;;;;;;5.07;3.53;;;16.50;99.90;;;;;;4966667;28;20039;-81
2021/07/02 12:24:06;;;;;;;4.60;3.20;;;16.70;99.90;;;;;;4932173;29;20041;-81
2021/07/02 12:26:34;;;;;;;6.22;4.00;;;16.80;99.90;;;;;;4948520;29;20039;-82
2021/07/02 12:29:10;;;;;;;6.43;3.80;;;16.90;99.90;;;;;;4940808;29;20054;-82
2021/07/02 12:32:02;;;;;;;6.40;4.35;;;17.00;99.90;;;;;;4952811;28;20031;-82
2021/07/02 12:34:40;;;;;;;8.15;4.90;;;17.10;99.90;;;;;;4965966;28;20034;-81
2021/07/02 12:37:12;;;;;;;5.50;4.30;;;17.20;99.90;;;;;;4924869;29;20067;-83
2021/07/02 12:39:43;;;;;;;6.07;4.72;;;17.20;99.90;;;;;;4933274;29;20114;-82
2021/07/02 12:42:46;;;;;;;9.00;5.25;;;17.20;99.90;;;;;;4941901;29;20151;-82
2021/07/02 12:45:14;;;;;;;6.50;4.60;;;17.20;99.90;;;;;;4945406;29;20048;-82
2021/07/02 12:47:42;;;;;;;7.78;5.47;;;17.40;99.90;;;;;;4934108;29;20694;-82
2021/07/02 12:50:20;;;;;;;6.68;4.82;;;17.50;99.90;;;;;;4928596;29;20036;-83
2021/07/02 12:55:41;;;;;;;6.82;4.97;;;17.50;99.90;;;;;;4964993;28;20082;-82
2021/07/02 12:58:07;;;;;;;6.85;5.13;;;17.50;99.90;;;;;;4933708;28;20434;-82
2021/07/02 13:00:33;;;;;;;7.32;5.20;;;17.60;99.90;;;;;;4944728;28;20035;-82